sensor_id;sensor_type;location;lat;lon;timestamp;temperature;humidity
14884;DHT22;7534;50.762;7.000;2022-12-07T00:01:14;6.10;99.90
14884;DHT22;7534;50.762;7.000;2022-12-07T00:03:43;6.20;99.90
14884;DHT22;7534;50.762;7.000;2022-12-07T00:06:12;6.20;99.90
14884;DHT22;7534;50.762;7.000;2022-12-07T00:08:39;6.20;99.90
14884;DHT22;7534;50.762;7.000;2022-12-07T00:11:14;6.20;99.90
14884;DHT22;7534;50.762;7.000;2022-12-07T00:13:43;6.10;99.90
14884;DHT22;7534;50.762;7.000;2022-12-07T00:16:12;6.20;99.90
14884;DHT22;7534;50.762;7.000;2022-12-07T00:18:41;6.20;99.90
14884;DHT22;7534;50.762;7.000;2022-12-07T00:21:16;6.20;99.90
14884;DHT22;7534;50.762;7.000;2022-12-07T00:23:45;6.30;99.90
14884;DHT22;7534;50.762;7.000;2022-12-07T00:26:21;6.20;99.90
14884;DHT22;7534;50.762;7.000;2022-12-07T00:28:48;6.30;99.90
14884;DHT22;7534;50.762;7.000;2022-12-07T00:31:18;6.30;99.90
14884;DHT22;7534;50.762;7.000;2022-12-07T00:33:45;6.30;99.90
14884;DHT22;7534;50.762;7.000;2022-12-07T00:36:17;6.30;99.90
14884;DHT22;7534;50.762;7.000;2022-12-07T00:38:44;6.30;99.90
14884;DHT22;7534;50.762;7.000;2022-12-07T00:41:13;6.20;99.90
14884;DHT22;7534;50.762;7.000;2022-12-07T00:43:41;6.20;99.90
14884;DHT22;7534;50.762;7.000;2022-12-07T00:46:08;6.20;99.90
14884;DHT22;7534;50.762;7.000;2022-12-07T00:48:34;6.20;99.90
14884;DHT22;7534;50.762;7.000;2022-12-07T00:51:00;6.30;99.90
14884;DHT22;7534;50.762;7.000;2022-12-07T00:53:27;6.30;99.90
14884;DHT22;7534;50.762;7.000;2022-12-07T00:55:53;6.30;99.90
14884;DHT22;7534;50.762;7.000;2022-12-07T00:58:20;6.30;99.90
14884;DHT22;7534;50.762;7.000;2022-12-07T01:00:46;6.20;99.90
14884;DHT22;7534;50.762;7.000;2022-12-07T01:03:16;6.10;99.90
14884;DHT22;7534;50.762;7.000;2022-12-07T01:05:53;6.00;99.90
14884;DHT22;7534;50.762;7.000;2022-12-07T01:08:20;5.90;99.90
14884;DHT22;7534;50.762;7.000;2022-12-07T01:10:47;6.00;99.90
14884;DHT22;7534;50.762;7.000;2022-12-07T01:13:14;6.00;99.90
14884;DHT22;7534;50.762;7.000;2022-12-07T01:15:44;6.00;99.90
14884;DHT22;7534;50.762;7.000;2022-12-07T01:18:10;6.10;99.90
14884;DHT22;7534;50.762;7.000;2022-12-07T01:20:37;6.20;99.90
14884;DHT22;7534;50.762;7.000;2022-12-07T01:23:03;6.10;99.90
14884;DHT22;7534;50.762;7.000;2022-12-07T01:25:29;6.30;99.90
14884;DHT22;7534;50.762;7.000;2022-12-07T01:27:54;6.30;99.90
14884;DHT22;7534;50.762;7.000;2022-12-07T01:30:20;6.30;99.90
14884;DHT22;7534;50.762;7.000;2022-12-07T01:32:46;6.30;99.90
14884;DHT22;7534;50.762;7.000;2022-12-07T01:35:11;6.20;99.90
14884;DHT22;7534;50.762;7.000;2022-12-07T01:37:38;6.30;99.90
14884;DHT22;7534;50.762;7.000;2022-12-07T01:40:05;6.40;99.90
14884;DHT22;7534;50.762;7.000;2022-12-07T01:42:33;6.30;99.90
14884;DHT22;7534;50.762;7.000;2022-12-07T01:47:49;6.40;99.90
14884;DHT22;7534;50.762;7.000;2022-12-07T01:50:19;6.30;99.90
14884;DHT22;7534;50.762;7.000;2022-12-07T01:52:49;6.50;99.90
14884;DHT22;7534;50.762;7.000;2022-12-07T01:55:17;6.40;99.90
14884;DHT22;7534;50.762;7.000;2022-12-07T01:57:47;6.50;99.90
14884;DHT22;7534;50.762;7.000;2022-12-07T02:00:16;6.50;99.90
14884;DHT22;7534;50.762;7.000;2022-12-07T02:03:09;6.50;99.90
14884;DHT22;7534;50.762;7.000;2022-12-07T02:05:41;6.50;99.90
14884;DHT22;7534;50.762;7.000;2022-12-07T02:08:09;6.40;99.90
14884;DHT22;7534;50.762;7.000;2022-12-07T02:10:37;6.40;99.90
14884;DHT22;7534;50.762;7.000;2022-12-07T02:13:06;6.40;99.90
14884;DHT22;7534;50.762;7.000;2022-12-07T02:21:29;6.40;99.90
14884;DHT22;7534;50.762;7.000;2022-12-07T02:24:37;6.40;99.90
14884;DHT22;7534;50.762;7.000;2022-12-07T02:27:52;6.30;99.90
14884;DHT22;7534;50.762;7.000;2022-12-07T02:30:31;6.30;99.90
14884;DHT22;7534;50.762;7.000;2022-12-07T02:33:21;6.40;99.90
14884;DHT22;7534;50.762;7.000;2022-12-07T02:36:03;6.40;99.90
14884;DHT22;7534;50.762;7.000;2022-12-07T02:38:51;6.30;99.90
14884;DHT22;7534;50.762;7.000;2022-12-07T02:41:47;6.20;99.90
14884;DHT22;7534;50.762;7.000;2022-12-07T02:44:23;6.40;99.90
14884;DHT22;7534;50.762;7.000;2022-12-07T02:46:58;6.40;99.90
14884;DHT22;7534;50.762;7.000;2022-12-07T02:49:29;6.40;99.90
14884;DHT22;7534;50.762;7.000;2022-12-07T02:51:55;6.40;99.90
14884;DHT22;7534;50.762;7.000;2022-12-07T02:54:21;6.40;99.90
14884;DHT22;7534;50.762;7.000;2022-12-07T03:00:15;6.50;99.90
14884;DHT22;7534;50.762;7.000;2022-12-07T03:02:51;6.50;99.90
14884;DHT22;7534;50.762;7.000;2022-12-07T03:07:59;6.50;99.90
14884;DHT22;7534;50.762;7.000;2022-12-07T03:10:48;6.50;99.90
14884;DHT22;7534;50.762;7.000;2022-12-07T03:16:33;6.40;99.90
14884;DHT22;7534;50.762;7.000;2022-12-07T03:19:15;6.50;99.90
14884;DHT22;7534;50.762;7.000;2022-12-07T03:21:49;6.50;99.90
14884;DHT22;7534;50.762;7.000;2022-12-07T03:24:42;6.50;99.90
14884;DHT22;7534;50.762;7.000;2022-12-07T03:27:16;6.60;99.90
14884;DHT22;7534;50.762;7.000;2022-12-07T03:30:00;6.60;99.90
14884;DHT22;7534;50.762;7.000;2022-12-07T03:32:37;6.50;99.90
14884;DHT22;7534;50.762;7.000;2022-12-07T03:35:20;6.40;99.90
14884;DHT22;7534;50.762;7.000;2022-12-07T03:38:00;6.40;99.90
14884;DHT22;7534;50.762;7.000;2022-12-07T03:40:40;6.40;99.90
14884;DHT22;7534;50.762;7.000;2022-12-07T03:43:12;6.40;99.90
14884;DHT22;7534;50.762;7.000;2022-12-07T03:45:41;6.40;99.90
14884;DHT22;7534;50.762;7.000;2022-12-07T03:51:30;6.40;99.90
14884;DHT22;7534;50.762;7.000;2022-12-07T03:54:16;6.40;99.90
14884;DHT22;7534;50.762;7.000;2022-12-07T03:56:47;6.50;99.90
14884;DHT22;7534;50.762;7.000;2022-12-07T03:59:15;6.40;99.90
14884;DHT22;7534;50.762;7.000;2022-12-07T04:01:45;6.40;99.90
14884;DHT22;7534;50.762;7.000;2022-12-07T04:04:18;6.30;99.90
14884;DHT22;7534;50.762;7.000;2022-12-07T04:06:43;6.30;99.90
14884;DHT22;7534;50.762;7.000;2022-12-07T04:09:09;6.30;99.90
14884;DHT22;7534;50.762;7.000;2022-12-07T04:11:34;6.40;99.90
14884;DHT22;7534;50.762;7.000;2022-12-07T04:14:00;6.40;99.90
14884;DHT22;7534;50.762;7.000;2022-12-07T04:16:49;6.50;99.90
14884;DHT22;7534;50.762;7.000;2022-12-07T04:19:19;6.40;99.90
14884;DHT22;7534;50.762;7.000;2022-12-07T04:21:46;6.40;99.90
14884;DHT22;7534;50.762;7.000;2022-12-07T04:24:14;6.40;99.90
14884;DHT22;7534;50.762;7.000;2022-12-07T04:26:41;6.30;99.90
14884;DHT22;7534;50.762;7.000;2022-12-07T04:34:11;6.30;99.90
14884;DHT22;7534;50.762;7.000;2022-12-07T04:36:38;6.20;99.90
14884;DHT22;7534;50.762;7.000;2022-12-07T04:39:07;6.20;99.90
14884;DHT22;7534;50.762;7.000;2022-12-07T04:41:35;6.10;99.90
14884;DHT22;7534;50.762;7.000;2022-12-07T04:44:03;6.10;99.90
14884;DHT22;7534;50.762;7.000;2022-12-07T04:46:32;6.10;99.90
14884;DHT22;7534;50.762;7.000;2022-12-07T04:48:59;6.10;99.90
14884;DHT22;7534;50.762;7.000;2022-12-07T04:51:26;6.10;99.90
14884;DHT22;7534;50.762;7.000;2022-12-07T04:53:54;6.10;99.90
14884;DHT22;7534;50.762;7.000;2022-12-07T04:56:22;6.10;99.90
14884;DHT22;7534;50.762;7.000;2022-12-07T04:58:50;6.10;99.90
14884;DHT22;7534;50.762;7.000;2022-12-07T05:01:18;6.00;99.90
14884;DHT22;7534;50.762;7.000;2022-12-07T05:03:44;6.00;99.90
14884;DHT22;7534;50.762;7.000;2022-12-07T05:06:10;6.00;99.90
14884;DHT22;7534;50.762;7.000;2022-12-07T05:08:37;5.90;99.90
14884;DHT22;7534;50.762;7.000;2022-12-07T05:11:05;5.80;99.90
14884;DHT22;7534;50.762;7.000;2022-12-07T05:13:32;5.80;99.90
14884;DHT22;7534;50.762;7.000;2022-12-07T05:15:58;5.70;99.90
14884;DHT22;7534;50.762;7.000;2022-12-07T05:18:25;5.60;99.90
14884;DHT22;7534;50.762;7.000;2022-12-07T05:20:51;5.70;99.90
14884;DHT22;7534;50.762;7.000;2022-12-07T05:23:17;5.60;99.90
14884;DHT22;7534;50.762;7.000;2022-12-07T05:25:44;5.60;99.90
14884;DHT22;7534;50.762;7.000;2022-12-07T05:28:10;5.50;99.90
14884;DHT22;7534;50.762;7.000;2022-12-07T05:30:36;5.50;99.90
14884;DHT22;7534;50.762;7.000;2022-12-07T05:33:02;5.50;99.90
14884;DHT22;7534;50.762;7.000;2022-12-07T05:35:28;5.60;99.90
14884;DHT22;7534;50.762;7.000;2022-12-07T05:37:55;5.50;99.90
14884;DHT22;7534;50.762;7.000;2022-12-07T05:40:22;5.50;99.90
14884;DHT22;7534;50.762;7.000;2022-12-07T05:42:49;5.50;99.90
14884;DHT22;7534;50.762;7.000;2022-12-07T05:45:15;5.60;99.90
14884;DHT22;7534;50.762;7.000;2022-12-07T05:47:41;5.60;99.90
14884;DHT22;7534;50.762;7.000;2022-12-07T05:50:09;5.60;99.90
14884;DHT22;7534;50.762;7.000;2022-12-07T05:52:35;5.60;99.90
14884;DHT22;7534;50.762;7.000;2022-12-07T05:55:06;5.60;99.90
14884;DHT22;7534;50.762;7.000;2022-12-07T05:57:41;5.60;99.90
14884;DHT22;7534;50.762;7.000;2022-12-07T06:00:27;5.60;99.90
14884;DHT22;7534;50.762;7.000;2022-12-07T06:02:52;5.60;99.90
14884;DHT22;7534;50.762;7.000;2022-12-07T06:05:18;5.60;99.90
14884;DHT22;7534;50.762;7.000;2022-12-07T06:07:44;5.70;99.90
14884;DHT22;7534;50.762;7.000;2022-12-07T06:10:10;5.70;99.90
14884;DHT22;7534;50.762;7.000;2022-12-07T06:12:36;5.70;99.90
14884;DHT22;7534;50.762;7.000;2022-12-07T06:15:05;5.70;99.90
14884;DHT22;7534;50.762;7.000;2022-12-07T06:17:33;5.70;99.90
14884;DHT22;7534;50.762;7.000;2022-12-07T06:20:03;5.70;99.90
14884;DHT22;7534;50.762;7.000;2022-12-07T06:22:31;5.80;99.90
14884;DHT22;7534;50.762;7.000;2022-12-07T06:24:59;5.90;99.90
14884;DHT22;7534;50.762;7.000;2022-12-07T06:27:27;5.90;99.90
14884;DHT22;7534;50.762;7.000;2022-12-07T06:29:53;6.00;99.90
14884;DHT22;7534;50.762;7.000;2022-12-07T06:32:19;5.90;99.90
14884;DHT22;7534;50.762;7.000;2022-12-07T06:34:47;5.90;99.90
14884;DHT22;7534;50.762;7.000;2022-12-07T06:37:17;5.90;99.90
14884;DHT22;7534;50.762;7.000;2022-12-07T06:39:44;5.80;99.90
14884;DHT22;7534;50.762;7.000;2022-12-07T06:42:11;5.70;99.90
14884;DHT22;7534;50.762;7.000;2022-12-07T06:44:37;5.70;99.90
14884;DHT22;7534;50.762;7.000;2022-12-07T06:47:03;5.60;99.90
14884;DHT22;7534;50.762;7.000;2022-12-07T06:49:29;5.60;99.90
14884;DHT22;7534;50.762;7.000;2022-12-07T06:51:56;5.50;99.90
14884;DHT22;7534;50.762;7.000;2022-12-07T06:54:22;5.50;99.90
14884;DHT22;7534;50.762;7.000;2022-12-07T06:56:48;5.50;99.90
14884;DHT22;7534;50.762;7.000;2022-12-07T06:59:14;5.50;99.90
14884;DHT22;7534;50.762;7.000;2022-12-07T07:01:39;5.50;99.90
14884;DHT22;7534;50.762;7.000;2022-12-07T07:04:05;5.50;99.90
14884;DHT22;7534;50.762;7.000;2022-12-07T07:06:32;5.60;99.90
14884;DHT22;7534;50.762;7.000;2022-12-07T07:08:58;5.60;99.90
14884;DHT22;7534;50.762;7.000;2022-12-07T07:11:24;5.60;99.90
14884;DHT22;7534;50.762;7.000;2022-12-07T07:13:50;5.60;99.90
14884;DHT22;7534;50.762;7.000;2022-12-07T07:16:15;5.60;99.90
14884;DHT22;7534;50.762;7.000;2022-12-07T07:18:41;5.60;99.90
14884;DHT22;7534;50.762;7.000;2022-12-07T07:21:07;5.60;99.90
14884;DHT22;7534;50.762;7.000;2022-12-07T07:23:32;5.60;99.90
14884;DHT22;7534;50.762;7.000;2022-12-07T07:25:59;5.60;99.90
14884;DHT22;7534;50.762;7.000;2022-12-07T07:28:25;5.70;99.90
14884;DHT22;7534;50.762;7.000;2022-12-07T07:30:52;5.70;99.90
14884;DHT22;7534;50.762;7.000;2022-12-07T07:33:18;5.70;99.90
14884;DHT22;7534;50.762;7.000;2022-12-07T07:35:45;5.70;99.90
14884;DHT22;7534;50.762;7.000;2022-12-07T07:38:11;5.80;99.90
14884;DHT22;7534;50.762;7.000;2022-12-07T07:40:55;5.80;99.90
14884;DHT22;7534;50.762;7.000;2022-12-07T07:43:22;5.90;99.90
14884;DHT22;7534;50.762;7.000;2022-12-07T07:45:47;5.90;99.90
14884;DHT22;7534;50.762;7.000;2022-12-07T07:48:13;5.90;99.90
14884;DHT22;7534;50.762;7.000;2022-12-07T07:50:41;6.00;99.90
14884;DHT22;7534;50.762;7.000;2022-12-07T07:53:06;6.00;99.90
14884;DHT22;7534;50.762;7.000;2022-12-07T07:55:35;5.90;99.90
14884;DHT22;7534;50.762;7.000;2022-12-07T07:58:01;6.00;99.90
14884;DHT22;7534;50.762;7.000;2022-12-07T08:00:28;6.00;99.90
14884;DHT22;7534;50.762;7.000;2022-12-07T08:02:56;6.10;99.90
14884;DHT22;7534;50.762;7.000;2022-12-07T08:05:22;6.20;99.90
14884;DHT22;7534;50.762;7.000;2022-12-07T08:07:55;6.10;99.90
14884;DHT22;7534;50.762;7.000;2022-12-07T08:10:24;6.10;99.90
14884;DHT22;7534;50.762;7.000;2022-12-07T08:12:50;6.00;99.90
14884;DHT22;7534;50.762;7.000;2022-12-07T08:15:47;5.90;99.90
14884;DHT22;7534;50.762;7.000;2022-12-07T08:18:14;5.70;99.90
14884;DHT22;7534;50.762;7.000;2022-12-07T08:20:44;5.80;99.90
14884;DHT22;7534;50.762;7.000;2022-12-07T08:23:13;5.70;99.90
14884;DHT22;7534;50.762;7.000;2022-12-07T08:25:41;5.70;99.90
14884;DHT22;7534;50.762;7.000;2022-12-07T08:28:07;5.80;99.90
14884;DHT22;7534;50.762;7.000;2022-12-07T08:30:33;5.90;99.90
14884;DHT22;7534;50.762;7.000;2022-12-07T08:32:59;6.00;99.90
14884;DHT22;7534;50.762;7.000;2022-12-07T08:35:25;6.10;99.90
14884;DHT22;7534;50.762;7.000;2022-12-07T08:37:53;6.20;99.90
14884;DHT22;7534;50.762;7.000;2022-12-07T08:40:21;6.30;99.90
14884;DHT22;7534;50.762;7.000;2022-12-07T08:42:51;6.40;99.90
14884;DHT22;7534;50.762;7.000;2022-12-07T08:45:17;6.60;99.90
14884;DHT22;7534;50.762;7.000;2022-12-07T08:47:52;6.80;99.90
14884;DHT22;7534;50.762;7.000;2022-12-07T08:50:24;6.90;99.90
14884;DHT22;7534;50.762;7.000;2022-12-07T08:52:55;6.90;99.90
14884;DHT22;7534;50.762;7.000;2022-12-07T08:55:23;6.80;99.90
14884;DHT22;7534;50.762;7.000;2022-12-07T08:57:50;6.90;99.90
14884;DHT22;7534;50.762;7.000;2022-12-07T09:00:17;6.70;99.90
14884;DHT22;7534;50.762;7.000;2022-12-07T09:02:46;6.60;99.90
14884;DHT22;7534;50.762;7.000;2022-12-07T09:05:12;6.50;99.90
14884;DHT22;7534;50.762;7.000;2022-12-07T09:07:43;6.70;99.90
14884;DHT22;7534;50.762;7.000;2022-12-07T09:10:11;7.10;99.90
14884;DHT22;7534;50.762;7.000;2022-12-07T09:12:37;7.40;99.90
14884;DHT22;7534;50.762;7.000;2022-12-07T09:15:03;7.60;99.90
14884;DHT22;7534;50.762;7.000;2022-12-07T09:17:32;7.80;99.90
14884;DHT22;7534;50.762;7.000;2022-12-07T09:19:59;7.90;99.90
14884;DHT22;7534;50.762;7.000;2022-12-07T09:22:29;8.00;99.90
14884;DHT22;7534;50.762;7.000;2022-12-07T09:24:57;8.00;99.90
14884;DHT22;7534;50.762;7.000;2022-12-07T09:27:23;8.00;99.90
14884;DHT22;7534;50.762;7.000;2022-12-07T09:29:49;7.90;99.90
14884;DHT22;7534;50.762;7.000;2022-12-07T09:32:15;7.80;99.90
14884;DHT22;7534;50.762;7.000;2022-12-07T09:34:41;7.90;99.90
14884;DHT22;7534;50.762;7.000;2022-12-07T09:37:07;7.80;99.90
14884;DHT22;7534;50.762;7.000;2022-12-07T09:39:40;7.80;99.90
14884;DHT22;7534;50.762;7.000;2022-12-07T09:42:07;7.90;99.90
14884;DHT22;7534;50.762;7.000;2022-12-07T09:44:36;7.80;99.90
14884;DHT22;7534;50.762;7.000;2022-12-07T09:47:02;7.90;99.90
14884;DHT22;7534;50.762;7.000;2022-12-07T09:49:30;7.90;99.90
14884;DHT22;7534;50.762;7.000;2022-12-07T09:52:03;8.10;99.90
14884;DHT22;7534;50.762;7.000;2022-12-07T09:54:48;8.30;99.90
14884;DHT22;7534;50.762;7.000;2022-12-07T09:57:16;8.20;99.90
14884;DHT22;7534;50.762;7.000;2022-12-07T09:59:43;8.30;99.90
14884;DHT22;7534;50.762;7.000;2022-12-07T10:05:00;8.30;99.90
14884;DHT22;7534;50.762;7.000;2022-12-07T10:07:29;8.20;99.90
14884;DHT22;7534;50.762;7.000;2022-12-07T10:09:55;8.20;99.90
14884;DHT22;7534;50.762;7.000;2022-12-07T10:12:21;8.20;99.90
14884;DHT22;7534;50.762;7.000;2022-12-07T10:15:00;8.20;99.90
14884;DHT22;7534;50.762;7.000;2022-12-07T10:17:36;8.20;99.90
14884;DHT22;7534;50.762;7.000;2022-12-07T10:20:26;8.20;99.90
14884;DHT22;7534;50.762;7.000;2022-12-07T10:22:59;8.20;99.90
14884;DHT22;7534;50.762;7.000;2022-12-07T10:25:34;8.30;99.90
14884;DHT22;7534;50.762;7.000;2022-12-07T10:30:56;8.70;99.90
14884;DHT22;7534;50.762;7.000;2022-12-07T10:33:28;8.70;99.90
14884;DHT22;7534;50.762;7.000;2022-12-07T10:36:27;8.90;99.90
14884;DHT22;7534;50.762;7.000;2022-12-07T10:43:20;9.10;99.90
14884;DHT22;7534;50.762;7.000;2022-12-07T10:55:35;9.40;99.90
14884;DHT22;7534;50.762;7.000;2022-12-07T10:58:35;9.50;99.90
14884;DHT22;7534;50.762;7.000;2022-12-07T11:01:39;9.10;99.90
14884;DHT22;7534;50.762;7.000;2022-12-07T11:16:17;9.10;99.90
14884;DHT22;7534;50.762;7.000;2022-12-07T11:23:24;9.20;99.90
14884;DHT22;7534;50.762;7.000;2022-12-07T11:36:47;8.80;99.90
14884;DHT22;7534;50.762;7.000;2022-12-07T11:50:52;10.40;99.90
14884;DHT22;7534;50.762;7.000;2022-12-07T11:57:31;10.10;98.60
14884;DHT22;7534;50.762;7.000;2022-12-07T12:07:32;9.50;99.80
14884;DHT22;7534;50.762;7.000;2022-12-07T12:21:26;8.50;99.90
14884;DHT22;7534;50.762;7.000;2022-12-07T12:24:39;8.20;99.90
14884;DHT22;7534;50.762;7.000;2022-12-07T12:27:47;8.10;99.90
14884;DHT22;7534;50.762;7.000;2022-12-07T12:45:20;8.10;99.90
14884;DHT22;7534;50.762;7.000;2022-12-07T12:48:29;8.30;99.90
14884;DHT22;7534;50.762;7.000;2022-12-07T12:51:38;8.40;99.90
14884;DHT22;7534;50.762;7.000;2022-12-07T12:59:16;8.40;99.90
14884;DHT22;7534;50.762;7.000;2022-12-07T13:09:36;8.20;99.90
14884;DHT22;7534;50.762;7.000;2022-12-07T13:15:40;8.00;99.90
14884;DHT22;7534;50.762;7.000;2022-12-07T13:36:25;8.30;99.90
14884;DHT22;7534;50.762;7.000;2022-12-07T13:45:38;8.40;99.90
14884;DHT22;7534;50.762;7.000;2022-12-07T13:48:36;8.30;99.90
14884;DHT22;7534;50.762;7.000;2022-12-07T13:51:28;8.30;99.90
14884;DHT22;7534;50.762;7.000;2022-12-07T14:00:30;7.80;99.90
14884;DHT22;7534;50.762;7.000;2022-12-07T14:03:32;7.60;99.90
14884;DHT22;7534;50.762;7.000;2022-12-07T14:06:26;7.50;99.90
14884;DHT22;7534;50.762;7.000;2022-12-07T14:09:36;7.50;99.90
14884;DHT22;7534;50.762;7.000;2022-12-07T14:12:15;7.40;99.90
14884;DHT22;7534;50.762;7.000;2022-12-07T14:14:47;7.50;99.90
14884;DHT22;7534;50.762;7.000;2022-12-07T14:17:32;7.40;99.90
14884;DHT22;7534;50.762;7.000;2022-12-07T14:20:02;7.20;99.90
14884;DHT22;7534;50.762;7.000;2022-12-07T14:22:36;7.10;99.90
14884;DHT22;7534;50.762;7.000;2022-12-07T14:27:39;7.10;99.90
14884;DHT22;7534;50.762;7.000;2022-12-07T14:30:15;7.20;99.90
14884;DHT22;7534;50.762;7.000;2022-12-07T14:32:43;7.20;99.90
14884;DHT22;7534;50.762;7.000;2022-12-07T14:35:16;7.20;99.90
14884;DHT22;7534;50.762;7.000;2022-12-07T14:37:46;7.30;99.90
14884;DHT22;7534;50.762;7.000;2022-12-07T14:40:32;7.30;99.90
14884;DHT22;7534;50.762;7.000;2022-12-07T14:43:03;7.40;99.90
14884;DHT22;7534;50.762;7.000;2022-12-07T14:45:32;7.40;99.90
14884;DHT22;7534;50.762;7.000;2022-12-07T14:47:58;7.40;99.90
14884;DHT22;7534;50.762;7.000;2022-12-07T14:50:24;7.40;99.90
14884;DHT22;7534;50.762;7.000;2022-12-07T14:52:54;7.40;99.90
14884;DHT22;7534;50.762;7.000;2022-12-07T14:57:55;7.30;99.90
14884;DHT22;7534;50.762;7.000;2022-12-07T15:00:25;7.30;99.90
14884;DHT22;7534;50.762;7.000;2022-12-07T15:02:53;7.30;99.90
14884;DHT22;7534;50.762;7.000;2022-12-07T15:05:20;7.30;99.90
14884;DHT22;7534;50.762;7.000;2022-12-07T15:07:47;7.40;99.90
14884;DHT22;7534;50.762;7.000;2022-12-07T15:10:20;7.30;99.90
14884;DHT22;7534;50.762;7.000;2022-12-07T15:12:48;7.30;99.90
14884;DHT22;7534;50.762;7.000;2022-12-07T15:15:14;7.20;99.90
14884;DHT22;7534;50.762;7.000;2022-12-07T15:17:40;7.20;99.90
14884;DHT22;7534;50.762;7.000;2022-12-07T15:20:10;7.20;99.90
14884;DHT22;7534;50.762;7.000;2022-12-07T15:22:37;7.20;99.90
14884;DHT22;7534;50.762;7.000;2022-12-07T15:25:03;7.20;99.90
14884;DHT22;7534;50.762;7.000;2022-12-07T15:27:31;7.20;99.90
14884;DHT22;7534;50.762;7.000;2022-12-07T15:29:57;7.20;99.90
14884;DHT22;7534;50.762;7.000;2022-12-07T15:32:22;7.20;99.90
14884;DHT22;7534;50.762;7.000;2022-12-07T15:34:48;7.00;99.90
14884;DHT22;7534;50.762;7.000;2022-12-07T15:37:15;6.90;99.90
14884;DHT22;7534;50.762;7.000;2022-12-07T15:39:42;6.90;99.90
14884;DHT22;7534;50.762;7.000;2022-12-07T15:42:08;6.80;99.90
14884;DHT22;7534;50.762;7.000;2022-12-07T15:44:33;6.80;99.90
14884;DHT22;7534;50.762;7.000;2022-12-07T15:47:17;6.90;99.90
14884;DHT22;7534;50.762;7.000;2022-12-07T15:49:43;6.90;99.90
14884;DHT22;7534;50.762;7.000;2022-12-07T15:52:09;6.80;99.90
14884;DHT22;7534;50.762;7.000;2022-12-07T15:54:35;6.80;99.90
14884;DHT22;7534;50.762;7.000;2022-12-07T15:57:01;6.80;99.90
14884;DHT22;7534;50.762;7.000;2022-12-07T15:59:27;6.80;99.90
14884;DHT22;7534;50.762;7.000;2022-12-07T16:01:54;6.90;99.90
14884;DHT22;7534;50.762;7.000;2022-12-07T16:04:20;6.90;99.90
14884;DHT22;7534;50.762;7.000;2022-12-07T16:06:46;6.80;99.90
14884;DHT22;7534;50.762;7.000;2022-12-07T16:09:12;6.80;99.90
14884;DHT22;7534;50.762;7.000;2022-12-07T16:11:38;6.80;99.90
14884;DHT22;7534;50.762;7.000;2022-12-07T16:14:05;6.80;99.90
14884;DHT22;7534;50.762;7.000;2022-12-07T16:16:30;6.70;99.90
14884;DHT22;7534;50.762;7.000;2022-12-07T16:18:57;6.70;99.90
14884;DHT22;7534;50.762;7.000;2022-12-07T16:21:23;6.80;99.90
14884;DHT22;7534;50.762;7.000;2022-12-07T16:23:49;6.80;99.90
14884;DHT22;7534;50.762;7.000;2022-12-07T16:26:17;6.80;99.90
14884;DHT22;7534;50.762;7.000;2022-12-07T16:28:45;6.80;99.90
14884;DHT22;7534;50.762;7.000;2022-12-07T16:31:16;6.80;99.90
14884;DHT22;7534;50.762;7.000;2022-12-07T16:33:43;6.80;99.90
14884;DHT22;7534;50.762;7.000;2022-12-07T16:36:11;6.80;99.90
14884;DHT22;7534;50.762;7.000;2022-12-07T16:38:41;6.80;99.90
14884;DHT22;7534;50.762;7.000;2022-12-07T16:41:08;6.90;99.90
14884;DHT22;7534;50.762;7.000;2022-12-07T16:43:35;6.80;99.90
14884;DHT22;7534;50.762;7.000;2022-12-07T16:46:02;6.80;99.90
14884;DHT22;7534;50.762;7.000;2022-12-07T16:48:29;6.80;99.90
14884;DHT22;7534;50.762;7.000;2022-12-07T16:50:54;6.80;99.90
14884;DHT22;7534;50.762;7.000;2022-12-07T16:53:22;6.80;99.90
14884;DHT22;7534;50.762;7.000;2022-12-07T16:55:49;6.80;99.90
14884;DHT22;7534;50.762;7.000;2022-12-07T16:58:16;6.80;99.90
14884;DHT22;7534;50.762;7.000;2022-12-07T17:00:43;6.80;99.90
14884;DHT22;7534;50.762;7.000;2022-12-07T17:03:10;6.60;99.90
14884;DHT22;7534;50.762;7.000;2022-12-07T17:05:41;6.60;99.90
14884;DHT22;7534;50.762;7.000;2022-12-07T17:08:09;6.60;99.90
14884;DHT22;7534;50.762;7.000;2022-12-07T17:10:38;6.50;99.90
14884;DHT22;7534;50.762;7.000;2022-12-07T17:13:06;6.60;99.90
14884;DHT22;7534;50.762;7.000;2022-12-07T17:15:59;6.50;99.90
14884;DHT22;7534;50.762;7.000;2022-12-07T17:18:32;6.50;99.90
14884;DHT22;7534;50.762;7.000;2022-12-07T17:21:07;6.50;99.90
14884;DHT22;7534;50.762;7.000;2022-12-07T17:23:35;6.50;99.90
14884;DHT22;7534;50.762;7.000;2022-12-07T17:26:06;6.50;99.90
14884;DHT22;7534;50.762;7.000;2022-12-07T17:28:35;6.50;99.90
14884;DHT22;7534;50.762;7.000;2022-12-07T17:31:04;6.50;99.90
14884;DHT22;7534;50.762;7.000;2022-12-07T17:33:32;6.50;99.90
14884;DHT22;7534;50.762;7.000;2022-12-07T17:35:59;6.50;99.90
14884;DHT22;7534;50.762;7.000;2022-12-07T17:38:25;6.40;99.90
14884;DHT22;7534;50.762;7.000;2022-12-07T17:40:52;6.40;99.90
14884;DHT22;7534;50.762;7.000;2022-12-07T17:43:18;6.40;99.90
14884;DHT22;7534;50.762;7.000;2022-12-07T17:45:46;6.40;99.90
14884;DHT22;7534;50.762;7.000;2022-12-07T17:48:18;6.30;99.90
14884;DHT22;7534;50.762;7.000;2022-12-07T17:50:45;6.30;99.90
14884;DHT22;7534;50.762;7.000;2022-12-07T17:53:31;6.30;99.90
14884;DHT22;7534;50.762;7.000;2022-12-07T17:55:57;6.20;99.90
14884;DHT22;7534;50.762;7.000;2022-12-07T17:58:24;6.20;99.90
14884;DHT22;7534;50.762;7.000;2022-12-07T18:00:49;6.20;99.90
14884;DHT22;7534;50.762;7.000;2022-12-07T18:03:15;6.20;99.90
14884;DHT22;7534;50.762;7.000;2022-12-07T18:05:42;6.10;99.90
14884;DHT22;7534;50.762;7.000;2022-12-07T18:08:10;6.10;99.90
14884;DHT22;7534;50.762;7.000;2022-12-07T18:10:35;6.10;99.90
14884;DHT22;7534;50.762;7.000;2022-12-07T18:13:01;6.00;99.90
14884;DHT22;7534;50.762;7.000;2022-12-07T18:15:46;5.90;99.90
14884;DHT22;7534;50.762;7.000;2022-12-07T18:18:12;5.80;99.90
14884;DHT22;7534;50.762;7.000;2022-12-07T18:20:38;5.80;99.90
14884;DHT22;7534;50.762;7.000;2022-12-07T18:23:03;5.80;99.90
14884;DHT22;7534;50.762;7.000;2022-12-07T18:25:29;5.90;99.90
14884;DHT22;7534;50.762;7.000;2022-12-07T18:27:56;5.90;99.90
14884;DHT22;7534;50.762;7.000;2022-12-07T18:30:22;5.90;99.90
14884;DHT22;7534;50.762;7.000;2022-12-07T18:32:47;5.80;99.90
14884;DHT22;7534;50.762;7.000;2022-12-07T18:35:14;5.90;99.90
14884;DHT22;7534;50.762;7.000;2022-12-07T18:37:50;5.80;99.90
14884;DHT22;7534;50.762;7.000;2022-12-07T18:40:16;5.90;99.90
14884;DHT22;7534;50.762;7.000;2022-12-07T18:42:41;5.90;99.90
14884;DHT22;7534;50.762;7.000;2022-12-07T18:45:08;5.90;99.90
14884;DHT22;7534;50.762;7.000;2022-12-07T18:47:34;5.90;99.90
14884;DHT22;7534;50.762;7.000;2022-12-07T18:50:00;5.90;99.90
14884;DHT22;7534;50.762;7.000;2022-12-07T18:52:26;5.90;99.90
14884;DHT22;7534;50.762;7.000;2022-12-07T18:54:52;5.90;99.90
14884;DHT22;7534;50.762;7.000;2022-12-07T18:57:19;5.80;99.90
14884;DHT22;7534;50.762;7.000;2022-12-07T18:59:44;5.80;99.90
14884;DHT22;7534;50.762;7.000;2022-12-07T19:02:10;5.80;99.90
14884;DHT22;7534;50.762;7.000;2022-12-07T19:04:36;5.80;99.90
14884;DHT22;7534;50.762;7.000;2022-12-07T19:07:02;5.70;99.90
14884;DHT22;7534;50.762;7.000;2022-12-07T19:09:29;5.80;99.90
14884;DHT22;7534;50.762;7.000;2022-12-07T19:11:54;5.70;99.90
14884;DHT22;7534;50.762;7.000;2022-12-07T19:14:34;5.80;99.90
14884;DHT22;7534;50.762;7.000;2022-12-07T19:17:06;5.70;99.90
14884;DHT22;7534;50.762;7.000;2022-12-07T19:20:01;5.70;99.90